sensor_id;sensor_type;location;lat;lon;timestamp;P1;durP1;ratioP1;P2;durP2;ratioP2
68989;SDS011;56046;47.270;11.368;2023-04-15T00:00:58;5.53;;;2.50;;
68989;SDS011;56046;47.270;11.368;2023-04-15T00:03:23;4.40;;;1.97;;
68989;SDS011;56046;47.270;11.368;2023-04-15T00:05:48;7.20;;;2.90;;
68989;SDS011;56046;47.270;11.368;2023-04-15T00:08:14;7.70;;;2.70;;
68989;SDS011;56046;47.270;11.368;2023-04-15T00:10:39;6.50;;;3.00;;
68989;SDS011;56046;47.270;11.368;2023-04-15T00:13:04;5.97;;;2.80;;
68989;SDS011;56046;47.270;11.368;2023-04-15T00:15:30;6.37;;;3.23;;
68989;SDS011;56046;47.270;11.368;2023-04-15T00:17:55;6.57;;;2.77;;
68989;SDS011;56046;47.270;11.368;2023-04-15T00:20:20;7.97;;;4.00;;
68989;SDS011;56046;47.270;11.368;2023-04-15T00:22:46;8.98;;;4.05;;
68989;SDS011;56046;47.270;11.368;2023-04-15T00:25:11;10.00;;;3.97;;
68989;SDS011;56046;47.270;11.368;2023-04-15T00:27:37;8.67;;;3.53;;
68989;SDS011;56046;47.270;11.368;2023-04-15T00:30:02;8.23;;;4.07;;
68989;SDS011;56046;47.270;11.368;2023-04-15T00:32:28;8.38;;;4.38;;
68989;SDS011;56046;47.270;11.368;2023-04-15T00:34:54;10.47;;;4.57;;
68989;SDS011;56046;47.270;11.368;2023-04-15T00:37:19;8.60;;;4.37;;
68989;SDS011;56046;47.270;11.368;2023-04-15T00:39:44;9.13;;;3.63;;
68989;SDS011;56046;47.270;11.368;2023-04-15T00:42:09;9.10;;;3.20;;
68989;SDS011;56046;47.270;11.368;2023-04-15T00:44:35;7.17;;;3.70;;
68989;SDS011;56046;47.270;11.368;2023-04-15T00:47:00;6.67;;;3.10;;
68989;SDS011;56046;47.270;11.368;2023-04-15T00:49:26;6.40;;;3.35;;
68989;SDS011;56046;47.270;11.368;2023-04-15T00:51:53;7.13;;;3.20;;
68989;SDS011;56046;47.270;11.368;2023-04-15T00:54:18;5.57;;;2.87;;
68989;SDS011;56046;47.270;11.368;2023-04-15T00:56:43;6.77;;;3.13;;
68989;SDS011;56046;47.270;11.368;2023-04-15T00:59:08;7.47;;;3.40;;
68989;SDS011;56046;47.270;11.368;2023-04-15T01:01:34;7.23;;;3.50;;
68989;SDS011;56046;47.270;11.368;2023-04-15T01:04:00;9.60;;;3.60;;
68989;SDS011;56046;47.270;11.368;2023-04-15T01:06:26;7.78;;;3.92;;
68989;SDS011;56046;47.270;11.368;2023-04-15T01:08:52;6.80;;;3.35;;
68989;SDS011;56046;47.270;11.368;2023-04-15T01:11:18;7.53;;;3.53;;
68989;SDS011;56046;47.270;11.368;2023-04-15T01:13:43;9.13;;;3.93;;
68989;SDS011;56046;47.270;11.368;2023-04-15T01:16:09;7.93;;;3.72;;
68989;SDS011;56046;47.270;11.368;2023-04-15T01:18:35;9.90;;;4.43;;
68989;SDS011;56046;47.270;11.368;2023-04-15T01:21:01;8.43;;;3.80;;
68989;SDS011;56046;47.270;11.368;2023-04-15T01:23:28;7.70;;;4.00;;
68989;SDS011;56046;47.270;11.368;2023-04-15T01:25:53;8.27;;;3.72;;
68989;SDS011;56046;47.270;11.368;2023-04-15T01:28:19;8.43;;;4.68;;
68989;SDS011;56046;47.270;11.368;2023-04-15T01:30:44;9.03;;;5.47;;
68989;SDS011;56046;47.270;11.368;2023-04-15T01:33:10;8.33;;;5.13;;
68989;SDS011;56046;47.270;11.368;2023-04-15T01:35:35;11.40;;;6.47;;
68989;SDS011;56046;47.270;11.368;2023-04-15T01:38:05;12.15;;;5.78;;
68989;SDS011;56046;47.270;11.368;2023-04-15T01:40:31;10.98;;;5.57;;
68989;SDS011;56046;47.270;11.368;2023-04-15T01:42:56;8.93;;;4.60;;
68989;SDS011;56046;47.270;11.368;2023-04-15T01:45:22;10.80;;;5.20;;
68989;SDS011;56046;47.270;11.368;2023-04-15T01:47:47;9.27;;;5.35;;
68989;SDS011;56046;47.270;11.368;2023-04-15T01:50:13;9.23;;;5.18;;
68989;SDS011;56046;47.270;11.368;2023-04-15T01:52:39;8.35;;;4.50;;
68989;SDS011;56046;47.270;11.368;2023-04-15T01:55:04;8.47;;;4.13;;
68989;SDS011;56046;47.270;11.368;2023-04-15T01:57:30;7.53;;;4.03;;
68989;SDS011;56046;47.270;11.368;2023-04-15T01:59:55;7.90;;;4.10;;
68989;SDS011;56046;47.270;11.368;2023-04-15T02:02:21;7.82;;;3.75;;
68989;SDS011;56046;47.270;11.368;2023-04-15T02:04:46;9.10;;;4.43;;
68989;SDS011;56046;47.270;11.368;2023-04-15T02:07:11;8.30;;;4.47;;
68989;SDS011;56046;47.270;11.368;2023-04-15T02:09:37;9.13;;;4.50;;
68989;SDS011;56046;47.270;11.368;2023-04-15T02:12:02;8.00;;;4.28;;
68989;SDS011;56046;47.270;11.368;2023-04-15T02:14:28;10.00;;;4.50;;
68989;SDS011;56046;47.270;11.368;2023-04-15T02:16:53;10.13;;;4.87;;
68989;SDS011;56046;47.270;11.368;2023-04-15T02:19:18;10.47;;;4.83;;
68989;SDS011;56046;47.270;11.368;2023-04-15T02:21:43;10.03;;;5.17;;
68989;SDS011;56046;47.270;11.368;2023-04-15T02:24:09;10.07;;;4.80;;
68989;SDS011;56046;47.270;11.368;2023-04-15T02:26:36;14.30;;;5.72;;
68989;SDS011;56046;47.270;11.368;2023-04-15T02:29:01;10.93;;;5.33;;
68989;SDS011;56046;47.270;11.368;2023-04-15T02:31:26;10.10;;;5.53;;
68989;SDS011;56046;47.270;11.368;2023-04-15T02:33:52;10.93;;;5.57;;
68989;SDS011;56046;47.270;11.368;2023-04-15T02:36:17;10.10;;;5.10;;
68989;SDS011;56046;47.270;11.368;2023-04-15T02:38:42;9.33;;;5.70;;
68989;SDS011;56046;47.270;11.368;2023-04-15T02:41:11;9.47;;;5.50;;
68989;SDS011;56046;47.270;11.368;2023-04-15T02:43:36;10.57;;;5.78;;
68989;SDS011;56046;47.270;11.368;2023-04-15T02:46:02;10.10;;;5.57;;
68989;SDS011;56046;47.270;11.368;2023-04-15T02:48:27;9.75;;;5.47;;
68989;SDS011;56046;47.270;11.368;2023-04-15T02:50:52;10.33;;;5.03;;
68989;SDS011;56046;47.270;11.368;2023-04-15T02:53:18;12.23;;;5.67;;
68989;SDS011;56046;47.270;11.368;2023-04-15T02:55:44;11.32;;;5.85;;
68989;SDS011;56046;47.270;11.368;2023-04-15T02:58:09;10.70;;;5.33;;
68989;SDS011;56046;47.270;11.368;2023-04-15T03:00:34;12.30;;;5.93;;
68989;SDS011;56046;47.270;11.368;2023-04-15T03:03:01;9.80;;;5.60;;
68989;SDS011;56046;47.270;11.368;2023-04-15T03:05:26;9.55;;;5.68;;
68989;SDS011;56046;47.270;11.368;2023-04-15T03:07:52;11.67;;;6.17;;
68989;SDS011;56046;47.270;11.368;2023-04-15T03:10:17;10.32;;;5.45;;
68989;SDS011;56046;47.270;11.368;2023-04-15T03:12:43;11.53;;;5.13;;
68989;SDS011;56046;47.270;11.368;2023-04-15T03:15:08;10.20;;;5.77;;
68989;SDS011;56046;47.270;11.368;2023-04-15T03:17:34;10.73;;;5.60;;
68989;SDS011;56046;47.270;11.368;2023-04-15T03:20:02;10.75;;;6.00;;
68989;SDS011;56046;47.270;11.368;2023-04-15T03:22:29;11.67;;;5.90;;
68989;SDS011;56046;47.270;11.368;2023-04-15T03:24:54;9.85;;;5.28;;
68989;SDS011;56046;47.270;11.368;2023-04-15T03:27:20;12.57;;;5.13;;
68989;SDS011;56046;47.270;11.368;2023-04-15T03:29:45;12.00;;;5.67;;
68989;SDS011;56046;47.270;11.368;2023-04-15T03:32:10;13.77;;;5.60;;
68989;SDS011;56046;47.270;11.368;2023-04-15T03:34:36;11.27;;;5.43;;
68989;SDS011;56046;47.270;11.368;2023-04-15T03:37:02;10.93;;;5.90;;
68989;SDS011;56046;47.270;11.368;2023-04-15T03:39:27;11.23;;;6.00;;
68989;SDS011;56046;47.270;11.368;2023-04-15T03:41:52;14.30;;;6.20;;
68989;SDS011;56046;47.270;11.368;2023-04-15T03:44:17;11.27;;;5.40;;
68989;SDS011;56046;47.270;11.368;2023-04-15T03:46:43;11.03;;;5.40;;
68989;SDS011;56046;47.270;11.368;2023-04-15T03:49:08;9.90;;;5.63;;
68989;SDS011;56046;47.270;11.368;2023-04-15T03:51:33;10.90;;;5.57;;
68989;SDS011;56046;47.270;11.368;2023-04-15T03:53:59;10.07;;;5.90;;
68989;SDS011;56046;47.270;11.368;2023-04-15T03:56:24;10.50;;;5.20;;
68989;SDS011;56046;47.270;11.368;2023-04-15T03:58:49;11.70;;;5.90;;
68989;SDS011;56046;47.270;11.368;2023-04-15T04:01:15;10.13;;;5.20;;
68989;SDS011;56046;47.270;11.368;2023-04-15T04:03:40;10.33;;;5.37;;
68989;SDS011;56046;47.270;11.368;2023-04-15T04:06:06;9.67;;;4.77;;
68989;SDS011;56046;47.270;11.368;2023-04-15T04:08:31;9.98;;;5.45;;
68989;SDS011;56046;47.270;11.368;2023-04-15T04:10:57;12.17;;;4.93;;
68989;SDS011;56046;47.270;11.368;2023-04-15T04:13:22;11.87;;;5.77;;
68989;SDS011;56046;47.270;11.368;2023-04-15T04:15:47;11.30;;;5.83;;
68989;SDS011;56046;47.270;11.368;2023-04-15T04:18:13;11.00;;;5.77;;
68989;SDS011;56046;47.270;11.368;2023-04-15T04:20:38;11.27;;;6.07;;
68989;SDS011;56046;47.270;11.368;2023-04-15T04:23:03;10.80;;;5.97;;
68989;SDS011;56046;47.270;11.368;2023-04-15T04:25:28;11.27;;;4.90;;
68989;SDS011;56046;47.270;11.368;2023-04-15T04:27:54;7.82;;;4.07;;
68989;SDS011;56046;47.270;11.368;2023-04-15T04:30:19;9.33;;;4.90;;
68989;SDS011;56046;47.270;11.368;2023-04-15T04:32:44;8.93;;;4.63;;
68989;SDS011;56046;47.270;11.368;2023-04-15T04:35:10;8.40;;;4.67;;
68989;SDS011;56046;47.270;11.368;2023-04-15T04:37:35;8.63;;;4.63;;
68989;SDS011;56046;47.270;11.368;2023-04-15T04:40:00;9.47;;;4.37;;
68989;SDS011;56046;47.270;11.368;2023-04-15T04:42:26;8.30;;;4.50;;
68989;SDS011;56046;47.270;11.368;2023-04-15T04:44:51;8.03;;;4.37;;
68989;SDS011;56046;47.270;11.368;2023-04-15T04:47:16;10.00;;;5.00;;
68989;SDS011;56046;47.270;11.368;2023-04-15T04:49:42;9.10;;;4.78;;
68989;SDS011;56046;47.270;11.368;2023-04-15T04:52:07;9.40;;;4.95;;
68989;SDS011;56046;47.270;11.368;2023-04-15T04:54:32;9.15;;;4.57;;
68989;SDS011;56046;47.270;11.368;2023-04-15T04:56:57;9.47;;;5.27;;
68989;SDS011;56046;47.270;11.368;2023-04-15T04:59:23;9.10;;;5.13;;
68989;SDS011;56046;47.270;11.368;2023-04-15T05:01:48;9.27;;;4.77;;
68989;SDS011;56046;47.270;11.368;2023-04-15T05:04:14;9.57;;;4.60;;
68989;SDS011;56046;47.270;11.368;2023-04-15T05:06:39;9.43;;;4.30;;
68989;SDS011;56046;47.270;11.368;2023-04-15T05:09:04;9.82;;;4.28;;
68989;SDS011;56046;47.270;11.368;2023-04-15T05:11:30;7.70;;;3.90;;
68989;SDS011;56046;47.270;11.368;2023-04-15T05:13:55;10.82;;;5.28;;
68989;SDS011;56046;47.270;11.368;2023-04-15T05:16:22;10.00;;;4.50;;
68989;SDS011;56046;47.270;11.368;2023-04-15T05:18:47;9.68;;;4.70;;
68989;SDS011;56046;47.270;11.368;2023-04-15T05:21:12;9.90;;;4.00;;
68989;SDS011;56046;47.270;11.368;2023-04-15T05:23:38;7.63;;;4.30;;
68989;SDS011;56046;47.270;11.368;2023-04-15T05:26:03;9.53;;;4.40;;
68989;SDS011;56046;47.270;11.368;2023-04-15T05:28:28;6.93;;;3.40;;
68989;SDS011;56046;47.270;11.368;2023-04-15T05:30:53;7.83;;;3.00;;
68989;SDS011;56046;47.270;11.368;2023-04-15T05:33:19;7.30;;;2.73;;
68989;SDS011;56046;47.270;11.368;2023-04-15T05:35:44;5.37;;;2.50;;
68989;SDS011;56046;47.270;11.368;2023-04-15T05:38:10;6.75;;;2.60;;
68989;SDS011;56046;47.270;11.368;2023-04-15T05:40:35;3.70;;;2.10;;
68989;SDS011;56046;47.270;11.368;2023-04-15T05:43:00;5.53;;;2.10;;
68989;SDS011;56046;47.270;11.368;2023-04-15T05:45:26;4.97;;;2.20;;
68989;SDS011;56046;47.270;11.368;2023-04-15T05:47:51;4.30;;;2.00;;
68989;SDS011;56046;47.270;11.368;2023-04-15T05:50:18;5.97;;;2.33;;
68989;SDS011;56046;47.270;11.368;2023-04-15T05:52:43;6.10;;;2.17;;
68989;SDS011;56046;47.270;11.368;2023-04-15T05:55:09;4.82;;;1.90;;
68989;SDS011;56046;47.270;11.368;2023-04-15T05:57:35;3.60;;;1.47;;
68989;SDS011;56046;47.270;11.368;2023-04-15T06:00:01;3.80;;;1.90;;
68989;SDS011;56046;47.270;11.368;2023-04-15T06:02:27;4.00;;;1.30;;
68989;SDS011;56046;47.270;11.368;2023-04-15T06:04:52;3.73;;;1.50;;
68989;SDS011;56046;47.270;11.368;2023-04-15T06:07:17;2.50;;;1.33;;
68989;SDS011;56046;47.270;11.368;2023-04-15T06:09:43;3.17;;;1.43;;
68989;SDS011;56046;47.270;11.368;2023-04-15T06:12:08;3.40;;;1.40;;
68989;SDS011;56046;47.270;11.368;2023-04-15T06:14:36;2.78;;;1.27;;
68989;SDS011;56046;47.270;11.368;2023-04-15T06:17:02;4.13;;;1.20;;
68989;SDS011;56046;47.270;11.368;2023-04-15T06:19:27;3.00;;;1.00;;
68989;SDS011;56046;47.270;11.368;2023-04-15T06:21:53;2.67;;;1.35;;
68989;SDS011;56046;47.270;11.368;2023-04-15T06:24:18;2.70;;;0.90;;
68989;SDS011;56046;47.270;11.368;2023-04-15T06:26:44;2.37;;;1.00;;
68989;SDS011;56046;47.270;11.368;2023-04-15T06:29:09;2.97;;;1.17;;
68989;SDS011;56046;47.270;11.368;2023-04-15T06:31:34;3.13;;;1.10;;
68989;SDS011;56046;47.270;11.368;2023-04-15T06:34:00;2.83;;;1.13;;
68989;SDS011;56046;47.270;11.368;2023-04-15T06:36:25;3.47;;;1.13;;
68989;SDS011;56046;47.270;11.368;2023-04-15T06:38:51;3.15;;;1.13;;
68989;SDS011;56046;47.270;11.368;2023-04-15T06:41:17;2.30;;;1.17;;
68989;SDS011;56046;47.270;11.368;2023-04-15T06:43:42;3.17;;;1.20;;
68989;SDS011;56046;47.270;11.368;2023-04-15T06:46:08;2.83;;;1.00;;
68989;SDS011;56046;47.270;11.368;2023-04-15T06:48:34;2.23;;;0.93;;
68989;SDS011;56046;47.270;11.368;2023-04-15T06:51:00;2.87;;;1.23;;
68989;SDS011;56046;47.270;11.368;2023-04-15T06:53:25;3.35;;;1.30;;
68989;SDS011;56046;47.270;11.368;2023-04-15T06:55:53;4.45;;;1.67;;
68989;SDS011;56046;47.270;11.368;2023-04-15T06:58:19;3.67;;;1.27;;
68989;SDS011;56046;47.270;11.368;2023-04-15T07:00:44;4.57;;;1.60;;
68989;SDS011;56046;47.270;11.368;2023-04-15T07:03:10;3.83;;;1.10;;
68989;SDS011;56046;47.270;11.368;2023-04-15T07:05:36;2.13;;;1.05;;
68989;SDS011;56046;47.270;11.368;2023-04-15T07:08:02;2.13;;;1.10;;
68989;SDS011;56046;47.270;11.368;2023-04-15T07:10:27;2.03;;;1.20;;
68989;SDS011;56046;47.270;11.368;2023-04-15T07:12:53;4.27;;;1.20;;
68989;SDS011;56046;47.270;11.368;2023-04-15T07:15:18;3.23;;;1.60;;
68989;SDS011;56046;47.270;11.368;2023-04-15T07:17:43;5.73;;;2.20;;
68989;SDS011;56046;47.270;11.368;2023-04-15T07:20:09;3.67;;;1.80;;
68989;SDS011;56046;47.270;11.368;2023-04-15T07:22:34;6.50;;;3.10;;
68989;SDS011;56046;47.270;11.368;2023-04-15T07:24:59;6.40;;;2.23;;
68989;SDS011;56046;47.270;11.368;2023-04-15T07:27:25;3.73;;;1.90;;
68989;SDS011;56046;47.270;11.368;2023-04-15T07:29:51;4.10;;;1.75;;
68989;SDS011;56046;47.270;11.368;2023-04-15T07:32:16;3.43;;;1.37;;
68989;SDS011;56046;47.270;11.368;2023-04-15T07:34:41;3.13;;;1.50;;
68989;SDS011;56046;47.270;11.368;2023-04-15T07:37:07;3.75;;;2.30;;
68989;SDS011;56046;47.270;11.368;2023-04-15T07:39:32;4.07;;;1.90;;
68989;SDS011;56046;47.270;11.368;2023-04-15T07:41:57;3.40;;;1.60;;
68989;SDS011;56046;47.270;11.368;2023-04-15T07:44:23;3.60;;;1.83;;
68989;SDS011;56046;47.270;11.368;2023-04-15T07:46:48;4.13;;;1.80;;
68989;SDS011;56046;47.270;11.368;2023-04-15T07:49:13;3.07;;;1.80;;
68989;SDS011;56046;47.270;11.368;2023-04-15T07:51:39;3.63;;;1.75;;
68989;SDS011;56046;47.270;11.368;2023-04-15T07:54:04;3.20;;;1.77;;
68989;SDS011;56046;47.270;11.368;2023-04-15T07:56:30;4.57;;;1.40;;
68989;SDS011;56046;47.270;11.368;2023-04-15T07:58:55;2.83;;;1.50;;
68989;SDS011;56046;47.270;11.368;2023-04-15T08:01:20;3.37;;;1.60;;
68989;SDS011;56046;47.270;11.368;2023-04-15T08:03:45;3.40;;;1.67;;
68989;SDS011;56046;47.270;11.368;2023-04-15T08:06:11;4.13;;;1.97;;
68989;SDS011;56046;47.270;11.368;2023-04-15T08:08:36;3.43;;;1.87;;
68989;SDS011;56046;47.270;11.368;2023-04-15T08:11:01;3.97;;;2.00;;
68989;SDS011;56046;47.270;11.368;2023-04-15T08:13:27;3.60;;;1.60;;
68989;SDS011;56046;47.270;11.368;2023-04-15T08:15:53;5.17;;;2.10;;
68989;SDS011;56046;47.270;11.368;2023-04-15T08:18:37;4.80;;;2.40;;
68989;SDS011;56046;47.270;11.368;2023-04-15T08:21:02;5.33;;;2.33;;
68989;SDS011;56046;47.270;11.368;2023-04-15T08:23:28;4.75;;;2.45;;
68989;SDS011;56046;47.270;11.368;2023-04-15T08:25:54;6.23;;;2.90;;
68989;SDS011;56046;47.270;11.368;2023-04-15T08:28:19;6.27;;;2.60;;
68989;SDS011;56046;47.270;11.368;2023-04-15T08:30:44;5.73;;;2.57;;
68989;SDS011;56046;47.270;11.368;2023-04-15T08:33:09;6.33;;;3.00;;
68989;SDS011;56046;47.270;11.368;2023-04-15T08:35:35;10.57;;;5.33;;
68989;SDS011;56046;47.270;11.368;2023-04-15T08:38:00;8.13;;;4.00;;
68989;SDS011;56046;47.270;11.368;2023-04-15T08:40:25;7.30;;;3.60;;
68989;SDS011;56046;47.270;11.368;2023-04-15T08:42:55;8.77;;;3.50;;
68989;SDS011;56046;47.270;11.368;2023-04-15T08:45:21;5.00;;;2.30;;
68989;SDS011;56046;47.270;11.368;2023-04-15T08:47:47;5.43;;;2.67;;
68989;SDS011;56046;47.270;11.368;2023-04-15T08:50:13;6.90;;;2.83;;
68989;SDS011;56046;47.270;11.368;2023-04-15T08:52:39;4.95;;;2.30;;
68989;SDS011;56046;47.270;11.368;2023-04-15T08:55:04;5.37;;;2.37;;
68989;SDS011;56046;47.270;11.368;2023-04-15T08:57:31;6.20;;;2.50;;
68989;SDS011;56046;47.270;11.368;2023-04-15T08:59:57;4.63;;;2.30;;
68989;SDS011;56046;47.270;11.368;2023-04-15T09:02:23;4.50;;;2.60;;
68989;SDS011;56046;47.270;11.368;2023-04-15T09:04:48;4.47;;;2.47;;
68989;SDS011;56046;47.270;11.368;2023-04-15T09:07:13;5.90;;;2.67;;
68989;SDS011;56046;47.270;11.368;2023-04-15T09:09:39;4.80;;;2.30;;
68989;SDS011;56046;47.270;11.368;2023-04-15T09:12:06;4.93;;;2.27;;
68989;SDS011;56046;47.270;11.368;2023-04-15T09:14:31;4.85;;;2.20;;
68989;SDS011;56046;47.270;11.368;2023-04-15T09:16:58;6.53;;;2.95;;
68989;SDS011;56046;47.270;11.368;2023-04-15T09:19:24;3.67;;;1.83;;
68989;SDS011;56046;47.270;11.368;2023-04-15T09:21:51;5.28;;;1.85;;
68989;SDS011;56046;47.270;11.368;2023-04-15T09:24:17;4.50;;;1.67;;
68989;SDS011;56046;47.270;11.368;2023-04-15T09:26:42;5.70;;;1.90;;
68989;SDS011;56046;47.270;11.368;2023-04-15T09:29:08;3.00;;;1.67;;
68989;SDS011;56046;47.270;11.368;2023-04-15T09:31:34;4.90;;;2.17;;
68989;SDS011;56046;47.270;11.368;2023-04-15T09:34:00;7.17;;;2.80;;
68989;SDS011;56046;47.270;11.368;2023-04-15T09:36:26;12.90;;;4.07;;
68989;SDS011;56046;47.270;11.368;2023-04-15T09:38:57;8.05;;;3.30;;
68989;SDS011;56046;47.270;11.368;2023-04-15T09:41:23;6.07;;;2.22;;
68989;SDS011;56046;47.270;11.368;2023-04-15T09:43:49;4.40;;;1.75;;
68989;SDS011;56046;47.270;11.368;2023-04-15T09:46:14;3.67;;;1.90;;
68989;SDS011;56046;47.270;11.368;2023-04-15T09:48:40;5.10;;;2.60;;
68989;SDS011;56046;47.270;11.368;2023-04-15T09:51:05;5.10;;;2.20;;
68989;SDS011;56046;47.270;11.368;2023-04-15T09:53:32;5.97;;;2.40;;
68989;SDS011;56046;47.270;11.368;2023-04-15T09:55:58;5.07;;;1.90;;
68989;SDS011;56046;47.270;11.368;2023-04-15T09:58:27;5.03;;;1.95;;
68989;SDS011;56046;47.270;11.368;2023-04-15T10:00:53;6.03;;;1.73;;
68989;SDS011;56046;47.270;11.368;2023-04-15T10:03:19;5.07;;;2.35;;
68989;SDS011;56046;47.270;11.368;2023-04-15T10:05:46;4.35;;;1.90;;
68989;SDS011;56046;47.270;11.368;2023-04-15T10:08:11;4.45;;;1.70;;
68989;SDS011;56046;47.270;11.368;2023-04-15T10:10:37;4.87;;;2.20;;
68989;SDS011;56046;47.270;11.368;2023-04-15T10:13:02;7.13;;;2.60;;
68989;SDS011;56046;47.270;11.368;2023-04-15T10:15:28;6.00;;;2.30;;
68989;SDS011;56046;47.270;11.368;2023-04-15T10:17:53;6.57;;;3.10;;
68989;SDS011;56046;47.270;11.368;2023-04-15T10:20:20;4.85;;;2.60;;
68989;SDS011;56046;47.270;11.368;2023-04-15T10:22:46;5.55;;;2.30;;
68989;SDS011;56046;47.270;11.368;2023-04-15T10:25:12;4.70;;;2.57;;
68989;SDS011;56046;47.270;11.368;2023-04-15T10:27:39;6.30;;;2.08;;
68989;SDS011;56046;47.270;11.368;2023-04-15T10:30:06;4.20;;;1.65;;
68989;SDS011;56046;47.270;11.368;2023-04-15T10:32:33;4.80;;;2.20;;
68989;SDS011;56046;47.270;11.368;2023-04-15T10:34:58;4.17;;;1.70;;
68989;SDS011;56046;47.270;11.368;2023-04-15T10:37:34;3.23;;;1.53;;
68989;SDS011;56046;47.270;11.368;2023-04-15T10:40:00;4.30;;;1.60;;
68989;SDS011;56046;47.270;11.368;2023-04-15T10:42:32;3.75;;;1.98;;
68989;SDS011;56046;47.270;11.368;2023-04-15T10:44:58;3.45;;;1.85;;
68989;SDS011;56046;47.270;11.368;2023-04-15T10:47:24;4.30;;;1.83;;
68989;SDS011;56046;47.270;11.368;2023-04-15T10:49:50;4.28;;;1.95;;
68989;SDS011;56046;47.270;11.368;2023-04-15T10:52:16;3.43;;;1.63;;
68989;SDS011;56046;47.270;11.368;2023-04-15T10:54:42;4.07;;;1.80;;
68989;SDS011;56046;47.270;11.368;2023-04-15T10:57:09;4.30;;;1.80;;
68989;SDS011;56046;47.270;11.368;2023-04-15T11:05:04;4.85;;;1.65;;
68989;SDS011;56046;47.270;11.368;2023-04-15T11:07:40;3.43;;;1.63;;
68989;SDS011;56046;47.270;11.368;2023-04-15T11:12:57;4.60;;;1.50;;
68989;SDS011;56046;47.270;11.368;2023-04-15T11:17:51;5.03;;;1.40;;
68989;SDS011;56046;47.270;11.368;2023-04-15T11:20:17;3.10;;;1.40;;
68989;SDS011;56046;47.270;11.368;2023-04-15T11:22:52;3.80;;;1.53;;
68989;SDS011;56046;47.270;11.368;2023-04-15T11:25:21;4.47;;;1.40;;
68989;SDS011;56046;47.270;11.368;2023-04-15T11:27:46;3.57;;;1.37;;
68989;SDS011;56046;47.270;11.368;2023-04-15T11:32:46;4.50;;;1.37;;
68989;SDS011;56046;47.270;11.368;2023-04-15T11:35:12;4.45;;;1.40;;
68989;SDS011;56046;47.270;11.368;2023-04-15T11:37:37;3.20;;;1.50;;
68989;SDS011;56046;47.270;11.368;2023-04-15T11:40:03;3.20;;;1.80;;
68989;SDS011;56046;47.270;11.368;2023-04-15T11:42:28;4.72;;;1.80;;
68989;SDS011;56046;47.270;11.368;2023-04-15T11:45:09;3.47;;;1.57;;
68989;SDS011;56046;47.270;11.368;2023-04-15T11:47:35;7.68;;;1.70;;
68989;SDS011;56046;47.270;11.368;2023-04-15T11:52:57;5.40;;;2.00;;
68989;SDS011;56046;47.270;11.368;2023-04-15T11:55:23;2.72;;;1.38;;
68989;SDS011;56046;47.270;11.368;2023-04-15T11:58:10;5.30;;;1.80;;
68989;SDS011;56046;47.270;11.368;2023-04-15T12:00:34;4.28;;;1.52;;
68989;SDS011;56046;47.270;11.368;2023-04-15T12:03:13;3.95;;;1.40;;
68989;SDS011;56046;47.270;11.368;2023-04-15T12:08:22;3.57;;;1.27;;
68989;SDS011;56046;47.270;11.368;2023-04-15T12:10:48;2.60;;;1.20;;
68989;SDS011;56046;47.270;11.368;2023-04-15T12:13:13;3.10;;;1.10;;
68989;SDS011;56046;47.270;11.368;2023-04-15T12:15:38;2.00;;;0.80;;
68989;SDS011;56046;47.270;11.368;2023-04-15T12:18:04;3.03;;;1.00;;
68989;SDS011;56046;47.270;11.368;2023-04-15T12:20:29;3.30;;;1.10;;
68989;SDS011;56046;47.270;11.368;2023-04-15T12:23:03;4.28;;;1.20;;
68989;SDS011;56046;47.270;11.368;2023-04-15T12:25:33;2.65;;;1.48;;
68989;SDS011;56046;47.270;11.368;2023-04-15T12:27:58;1.80;;;1.17;;
68989;SDS011;56046;47.270;11.368;2023-04-15T12:30:24;2.17;;;1.10;;
68989;SDS011;56046;47.270;11.368;2023-04-15T12:32:50;2.03;;;1.10;;
68989;SDS011;56046;47.270;11.368;2023-04-15T12:35:16;2.55;;;1.20;;
68989;SDS011;56046;47.270;11.368;2023-04-15T12:37:43;4.40;;;1.20;;
68989;SDS011;56046;47.270;11.368;2023-04-15T12:40:08;4.20;;;1.13;;
68989;SDS011;56046;47.270;11.368;2023-04-15T12:42:34;4.23;;;1.20;;
68989;SDS011;56046;47.270;11.368;2023-04-15T12:44:59;3.50;;;1.30;;
68989;SDS011;56046;47.270;11.368;2023-04-15T12:47:25;3.88;;;1.10;;
68989;SDS011;56046;47.270;11.368;2023-04-15T12:49:50;3.33;;;1.00;;
68989;SDS011;56046;47.270;11.368;2023-04-15T12:52:16;3.60;;;1.23;;
68989;SDS011;56046;47.270;11.368;2023-04-15T12:54:41;3.23;;;1.30;;
68989;SDS011;56046;47.270;11.368;2023-04-15T12:57:06;3.90;;;1.07;;
68989;SDS011;56046;47.270;11.368;2023-04-15T12:59:32;2.78;;;1.10;;
68989;SDS011;56046;47.270;11.368;2023-04-15T13:01:57;2.50;;;1.10;;
68989;SDS011;56046;47.270;11.368;2023-04-15T13:04:24;3.97;;;1.30;;
68989;SDS011;56046;47.270;11.368;2023-04-15T13:06:49;4.40;;;1.40;;
68989;SDS011;56046;47.270;11.368;2023-04-15T13:09:15;2.30;;;1.10;;
68989;SDS011;56046;47.270;11.368;2023-04-15T13:11:40;3.03;;;1.13;;
68989;SDS011;56046;47.270;11.368;2023-04-15T13:14:06;4.43;;;0.93;;
68989;SDS011;56046;47.270;11.368;2023-04-15T13:16:32;3.50;;;1.17;;
68989;SDS011;56046;47.270;11.368;2023-04-15T13:18:58;4.30;;;1.50;;
68989;SDS011;56046;47.270;11.368;2023-04-15T13:21:23;3.25;;;1.20;;
68989;SDS011;56046;47.270;11.368;2023-04-15T13:23:49;2.93;;;1.40;;
68989;SDS011;56046;47.270;11.368;2023-04-15T13:26:17;3.85;;;1.23;;
68989;SDS011;56046;47.270;11.368;2023-04-15T13:28:42;3.13;;;1.10;;
68989;SDS011;56046;47.270;11.368;2023-04-15T13:31:08;4.13;;;1.60;;
68989;SDS011;56046;47.270;11.368;2023-04-15T13:33:33;4.73;;;1.30;;
68989;SDS011;56046;47.270;11.368;2023-04-15T13:35:58;4.53;;;1.70;;
68989;SDS011;56046;47.270;11.368;2023-04-15T13:38:24;2.77;;;1.63;;
68989;SDS011;56046;47.270;11.368;2023-04-15T13:40:49;3.27;;;1.50;;
68989;SDS011;56046;47.270;11.368;2023-04-15T13:43:15;2.93;;;1.37;;
68989;SDS011;56046;47.270;11.368;2023-04-15T13:45:40;3.35;;;1.20;;
68989;SDS011;56046;47.270;11.368;2023-04-15T13:48:05;3.30;;;1.50;;
68989;SDS011;56046;47.270;11.368;2023-04-15T13:50:31;3.03;;;1.20;;
68989;SDS011;56046;47.270;11.368;2023-04-15T13:52:56;2.43;;;1.30;;
68989;SDS011;56046;47.270;11.368;2023-04-15T13:55:21;4.30;;;1.60;;
68989;SDS011;56046;47.270;11.368;2023-04-15T13:57:46;2.63;;;1.43;;
68989;SDS011;56046;47.270;11.368;2023-04-15T14:00:12;3.87;;;1.23;;
68989;SDS011;56046;47.270;11.368;2023-04-15T14:02:38;3.55;;;1.40;;
68989;SDS011;56046;47.270;11.368;2023-04-15T14:05:04;4.03;;;1.10;;
68989;SDS011;56046;47.270;11.368;2023-04-15T14:07:29;3.37;;;1.20;;
68989;SDS011;56046;47.270;11.368;2023-04-15T14:09:55;5.57;;;1.27;;
68989;SDS011;56046;47.270;11.368;2023-04-15T14:12:20;2.72;;;1.20;;
68989;SDS011;56046;47.270;11.368;2023-04-15T14:14:46;2.13;;;1.10;;
68989;SDS011;56046;47.270;11.368;2023-04-15T14:17:11;3.33;;;1.23;;
68989;SDS011;56046;47.270;11.368;2023-04-15T14:19:36;2.70;;;1.33;;
68989;SDS011;56046;47.270;11.368;2023-04-15T14:22:01;3.57;;;1.33;;
68989;SDS011;56046;47.270;11.368;2023-04-15T14:24:27;4.15;;;1.45;;
68989;SDS011;56046;47.270;11.368;2023-04-15T14:26:52;3.47;;;1.70;;
68989;SDS011;56046;47.270;11.368;2023-04-15T14:29:18;3.57;;;1.23;;
68989;SDS011;56046;47.270;11.368;2023-04-15T14:31:43;5.00;;;1.43;;
68989;SDS011;56046;47.270;11.368;2023-04-15T14:34:09;3.27;;;1.10;;
68989;SDS011;56046;47.270;11.368;2023-04-15T14:36:35;3.20;;;1.13;;
68989;SDS011;56046;47.270;11.368;2023-04-15T14:39:00;4.33;;;1.63;;
68989;SDS011;56046;47.270;11.368;2023-04-15T14:41:25;3.00;;;1.63;;
68989;SDS011;56046;47.270;11.368;2023-04-15T14:43:51;7.33;;;2.77;;